Time;durP1;ratioP1;P1;durP2;ratioP2;P2;SDS_P1;SDS_P2;PMS_P1;PMS_P2;Temp;Humidity;BMP_temperature;BMP_pressure;BME280_temperature;BME280_humidity;BME280_pressure;Samples;Min_cycle;Max_cycle;Signal;HPM_P1;HPM_P2
2022/01/02 00:01:48;;;;;;;10.85;6.05;;;11.70;99.90;;;;;;6102085;23;20018;-91
2022/01/02 00:04:21;;;;;;;11.00;5.72;;;11.70;99.90;;;;;;6078073;23;20344;-91
2022/01/02 00:06:53;;;;;;;11.70;6.00;;;11.70;99.90;;;;;;6078155;23;20025;-90
2022/01/02 00:09:36;;;;;;;13.77;5.90;;;11.70;99.90;;;;;;6101494;23;20069;-92
2022/01/02 00:12:14;;;;;;;11.98;6.03;;;11.70;99.90;;;;;;6101859;23;20499;-90
2022/01/02 00:14:44;;;;;;;12.65;6.55;;;11.70;99.90;;;;;;6078198;23;20024;-91
2022/01/02 00:17:10;;;;;;;12.13;5.90;;;11.70;99.90;;;;;;6077841;23;20321;-91
2022/01/02 00:19:52;;;;;;;11.05;5.80;;;11.70;99.90;;;;;;6077433;23;20022;-91
2022/01/02 00:22:36;;;;;;;10.63;5.55;;;11.70;99.90;;;;;;6077246;23;20018;-91
2022/01/02 00:42:35;;;;;;;12.65;5.80;;;11.80;99.90;;;;;;6188657;23;20024;-90
2022/01/02 00:45:18;;;;;;;12.48;5.82;;;11.80;99.90;;;;;;6165674;23;20446;-90
2022/01/02 00:48:06;;;;;;;12.75;5.63;;;11.90;99.90;;;;;;6166056;23;20095;-91
2022/01/02 00:50:56;;;;;;;17.63;6.00;;;11.90;99.90;;;;;;6190644;23;20323;-90
2022/01/02 00:53:35;;;;;;;12.07;5.43;;;11.90;99.90;;;;;;6166230;23;20336;-91
2022/01/02 00:56:02;;;;;;;12.13;5.65;;;11.90;99.90;;;;;;6165587;23;20481;-91
2022/01/02 00:58:44;;;;;;;14.65;6.18;;;11.90;99.90;;;;;;6165537;23;20386;-90
2022/01/02 01:01:14;;;;;;;12.65;6.03;;;11.90;99.90;;;;;;6165477;23;20020;-90
2022/01/02 01:03:41;;;;;;;15.30;5.78;;;11.90;99.90;;;;;;6165785;23;20012;-92
2022/01/02 01:06:09;;;;;;;14.57;6.13;;;11.90;99.90;;;;;;6165744;23;20327;-91
2022/01/02 01:08:36;;;;;;;15.15;6.40;;;11.90;99.90;;;;;;6165877;23;20052;-91
2022/01/02 01:11:07;;;;;;;12.48;5.78;;;11.90;99.90;;;;;;6165853;23;20462;-91
2022/01/02 01:13:34;;;;;;;14.52;5.82;;;11.90;99.90;;;;;;6165398;23;20017;-93
2022/01/02 01:16:03;;;;;;;16.73;5.97;;;11.90;99.90;;;;;;6165473;23;20012;-91
2022/01/02 01:18:29;;;;;;;14.60;6.45;;;11.90;99.90;;;;;;6190087;23;20016;-93
2022/01/02 01:20:55;;;;;;;15.48;6.80;;;11.90;99.90;;;;;;6165693;23;20024;-89
2022/01/02 01:23:24;;;;;;;17.60;6.07;;;11.90;99.90;;;;;;6189928;23;20028;-93
2022/01/02 01:25:50;;;;;;;16.23;6.70;;;11.90;99.90;;;;;;6190849;23;20048;-90
2022/01/02 01:28:17;;;;;;;11.68;6.03;;;11.90;99.90;;;;;;6193380;23;20021;-90
2022/01/02 01:30:43;;;;;;;13.30;6.80;;;11.90;99.90;;;;;;6167151;23;20009;-91
2022/01/02 01:33:12;;;;;;;14.80;6.60;;;11.90;99.90;;;;;;6166754;23;20017;-88
2022/01/02 01:35:44;;;;;;;15.13;7.40;;;11.90;99.90;;;;;;6191047;23;20095;-92
2022/01/02 01:38:10;;;;;;;17.77;7.57;;;11.90;99.90;;;;;;6190580;23;20080;-90
2022/01/02 01:40:47;;;;;;;17.08;6.43;;;11.90;99.90;;;;;;6190176;23;20098;-92
2022/01/02 01:43:14;;;;;;;11.93;6.60;;;11.80;99.90;;;;;;6160287;23;20021;-93
2022/01/02 01:45:40;;;;;;;;;;;11.90;99.90;;;;;;6160237;23;20020;-93
2022/01/02 01:48:07;;;;;;;15.35;7.38;;;11.80;99.90;;;;;;6160352;23;19987;-90
2022/01/02 01:50:42;;;;;;;18.50;7.80;;;11.80;99.90;;;;;;6160272;23;20096;-89
2022/01/02 01:53:09;;;;;;;16.45;8.25;;;11.80;99.90;;;;;;6160568;23;20317;-91
2022/01/02 01:55:37;;;;;;;17.95;8.10;;;11.80;99.90;;;;;;6160393;23;20070;-90
2022/01/02 01:58:05;;;;;;;17.55;7.78;;;11.80;99.90;;;;;;6159792;23;20343;-90
2022/01/02 02:05:42;;;;;;;15.23;7.95;;;11.70;99.90;;;;;;6159477;23;20442;-93
2022/01/02 02:08:09;;;;;;;19.45;8.30;;;11.80;99.90;;;;;;6135339;23;20386;-91
2022/01/02 02:10:39;;;;;;;15.40;8.55;;;11.70;99.90;;;;;;6135459;23;20021;-91
2022/01/02 02:13:05;;;;;;;14.38;8.23;;;11.70;99.90;;;;;;6135497;23;20020;-92
2022/01/02 02:15:31;;;;;;;17.30;9.45;;;11.70;99.90;;;;;;6135302;23;20381;-92
2022/01/02 02:18:19;;;;;;;18.42;10.02;;;11.70;99.90;;;;;;6136149;23;20021;-91
2022/01/02 02:20:44;;;;;;;17.08;9.32;;;11.70;99.90;;;;;;6135457;23;20017;-92
2022/01/02 02:23:13;;;;;;;18.77;9.67;;;11.70;99.90;;;;;;6135815;23;20128;-92
2022/01/02 02:25:40;;;;;;;20.95;10.35;;;11.70;99.90;;;;;;6135551;23;20283;-93
2022/01/02 02:28:26;;;;;;;17.02;8.95;;;11.70;99.90;;;;;;6135616;23;20029;-94
2022/01/02 02:30:53;;;;;;;18.17;9.80;;;11.70;99.90;;;;;;6135660;23;20017;-95
2022/01/02 02:33:19;;;;;;;21.02;10.00;;;11.70;99.90;;;;;;6135634;23;20024;-94
2022/01/02 02:35:47;;;;;;;20.13;9.70;;;11.70;99.90;;;;;;6135646;23;20017;-95
2022/01/02 02:38:15;;;;;;;20.80;9.82;;;11.60;99.90;;;;;;6160467;23;20570;-94
2022/01/02 02:40:41;;;;;;;24.00;10.60;;;11.60;99.90;;;;;;6140832;23;20168;-95
2022/01/02 02:49:00;;;;;;;22.65;10.35;;;11.60;99.90;;;;;;6166501;23;20085;-96
2022/01/02 02:51:50;;;;;;;22.92;10.68;;;11.60;99.90;;;;;;6143287;23;20017;-94
2022/01/02 02:54:26;;;;;;;19.40;10.93;;;11.60;99.90;;;;;;6167585;23;20021;-96
2022/01/02 02:56:57;;;;;;;21.83;12.02;;;11.50;99.90;;;;;;6140245;23;20013;-96
2022/01/02 02:59:31;;;;;;;20.45;12.05;;;11.50;99.90;;;;;;6138327;23;20021;-96
2022/01/02 03:01:58;;;;;;;24.33;11.98;;;11.50;99.90;;;;;;6138323;23;20021;-93
2022/01/02 03:04:24;;;;;;;;;;;11.50;99.90;;;;;;6138978;23;20092;-95
2022/01/02 03:06:54;;;;;;;23.00;11.75;;;11.50;99.90;;;;;;6137695;23;19916;-93
2022/01/02 03:09:37;;;;;;;24.77;12.00;;;11.50;99.90;;;;;;6161919;23;20056;-91
2022/01/02 03:12:03;;;;;;;27.52;12.43;;;11.50;99.90;;;;;;6136990;23;20025;-92
2022/01/02 03:14:30;;;;;;;21.02;11.13;;;11.50;99.90;;;;;;6137134;23;20052;-94
2022/01/02 03:16:56;;;;;;;21.38;11.50;;;11.50;99.90;;;;;;6137109;23;20020;-94
2022/01/02 03:19:21;;;;;;;20.73;11.63;;;11.40;99.90;;;;;;6136897;23;20413;-93
2022/01/02 03:21:47;;;;;;;19.23;11.17;;;11.40;99.90;;;;;;6137391;23;20032;-93
2022/01/02 03:24:13;;;;;;;19.10;11.03;;;11.40;99.90;;;;;;6138229;23;20382;-93
2022/01/02 03:26:39;;;;;;;17.63;11.75;;;11.40;99.90;;;;;;6142551;23;20017;-95
2022/01/02 03:29:04;;;;;;;19.50;11.73;;;11.40;99.90;;;;;;6164080;23;20044;-94
2022/01/02 03:31:30;;;;;;;18.50;10.60;;;11.40;99.90;;;;;;6142937;23;20092;-92
2022/01/02 03:33:56;;;;;;;20.00;12.57;;;11.40;99.90;;;;;;6146152;23;20017;-96
2022/01/02 03:36:22;;;;;;;18.52;11.30;;;11.40;99.90;;;;;;6137675;23;20087;-91
2022/01/02 03:38:47;;;;;;;22.50;11.90;;;11.40;99.90;;;;;;6137024;23;20051;-91
2022/01/02 03:41:13;;;;;;;18.80;11.93;;;11.40;99.90;;;;;;6136661;23;20555;-93
2022/01/02 03:43:39;;;;;;;22.05;12.10;;;11.30;99.90;;;;;;6136939;23;20056;-94
2022/01/02 03:46:05;;;;;;;19.27;11.67;;;11.40;99.90;;;;;;6136627;23;20013;-93
2022/01/02 03:48:32;;;;;;;27.33;13.18;;;11.30;99.90;;;;;;6136792;23;20024;-96
2022/01/02 03:50:58;;;;;;;23.63;12.68;;;11.40;99.90;;;;;;6161246;23;20056;-94
2022/01/02 03:53:24;;;;;;;22.30;12.10;;;11.30;99.90;;;;;;6136613;23;20028;-95
2022/01/02 03:55:50;;;;;;;25.00;13.02;;;11.30;99.90;;;;;;6161217;23;20024;-94
2022/01/02 03:58:16;;;;;;;26.15;13.48;;;11.30;99.90;;;;;;6136699;23;20392;-94
2022/01/02 04:00:41;;;;;;;24.73;14.35;;;11.30;99.90;;;;;;6161098;23;20374;-93
2022/01/02 04:03:07;;;;;;;23.35;13.25;;;11.30;99.90;;;;;;6136502;23;20028;-93
2022/01/02 04:05:33;;;;;;;28.17;14.13;;;11.30;99.90;;;;;;6136509;23;20037;-91
2022/01/02 04:07:59;;;;;;;22.83;12.47;;;11.30;99.90;;;;;;6160987;23;20083;-94
2022/01/02 04:10:24;;;;;;;25.10;12.73;;;11.30;99.90;;;;;;6136456;23;20258;-94
2022/01/02 04:12:50;;;;;;;27.27;13.25;;;11.30;99.90;;;;;;6136396;23;20021;-93
2022/01/02 04:15:16;;;;;;;20.48;12.45;;;11.40;99.90;;;;;;6136267;23;20013;-92
2022/01/02 04:17:42;;;;;;;22.40;12.93;;;11.40;99.90;;;;;;6136573;23;20323;-91
2022/01/02 04:20:10;;;;;;;23.30;13.38;;;11.30;99.90;;;;;;6136559;23;20027;-94
2022/01/02 04:22:36;;;;;;;22.67;12.27;;;11.40;99.90;;;;;;6136201;23;20471;-93
2022/01/02 04:25:03;;;;;;;25.83;13.53;;;11.40;99.90;;;;;;6136310;23;20036;-93
2022/01/02 04:27:29;;;;;;;26.08;13.25;;;11.40;99.90;;;;;;6136359;23;20341;-94
2022/01/02 04:29:55;;;;;;;25.10;13.10;;;11.40;99.90;;;;;;6136604;23;20092;-93
2022/01/02 04:32:20;;;;;;;24.30;13.07;;;11.40;99.90;;;;;;6136230;23;20017;-94
2022/01/02 04:34:46;;;;;;;28.03;12.47;;;11.40;99.90;;;;;;6136456;23;20044;-93
2022/01/02 04:37:12;;;;;;;25.40;12.97;;;11.40;99.90;;;;;;6136894;23;20071;-91
2022/01/02 04:39:39;;;;;;;24.50;12.85;;;11.40;99.90;;;;;;6161110;23;20728;-91
2022/01/02 04:42:04;;;;;;;;;;;11.50;99.90;;;;;;6161059;23;20021;-93
2022/01/02 04:44:30;;;;;;;24.38;12.02;;;11.50;99.90;;;;;;6160986;23;19916;-92
2022/01/02 04:46:56;;;;;;;20.77;11.03;;;11.50;99.90;;;;;;6136805;23;20017;-93
2022/01/02 04:49:22;;;;;;;22.00;12.20;;;11.50;99.90;;;;;;6160844;23;20021;-92
2022/01/02 04:51:47;;;;;;;24.60;11.47;;;11.50;99.90;;;;;;6136104;23;20021;-93
2022/01/02 04:54:14;;;;;;;22.37;11.57;;;11.50;99.90;;;;;;6136155;23;20017;-95
2022/01/02 04:56:40;;;;;;;22.10;11.70;;;11.50;99.90;;;;;;6136017;23;20342;-92
2022/01/02 04:59:06;;;;;;;23.05;11.60;;;11.50;99.90;;;;;;6160792;23;20017;-94
2022/01/02 05:01:32;;;;;;;20.77;11.65;;;11.50;99.90;;;;;;6136055;23;20346;-92
2022/01/02 05:03:58;;;;;;;22.00;11.48;;;11.50;99.90;;;;;;6136189;23;20024;-94
2022/01/02 05:06:23;;;;;;;24.97;12.87;;;11.50;99.90;;;;;;6136148;23;20013;-94
2022/01/02 05:08:49;;;;;;;20.93;11.13;;;11.50;99.90;;;;;;6160782;23;20032;-93
2022/01/02 05:11:16;;;;;;;24.65;12.43;;;11.60;99.90;;;;;;6136467;23;20032;-95
2022/01/02 05:13:42;;;;;;;22.63;12.15;;;11.60;99.90;;;;;;6137453;23;20027;-93
2022/01/02 05:16:08;;;;;;;20.55;12.02;;;11.60;99.90;;;;;;6160883;23;20048;-96
2022/01/02 05:18:34;;;;;;;24.03;11.17;;;11.60;99.90;;;;;;6160815;23;20021;-94
2022/01/02 05:20:59;;;;;;;24.45;13.02;;;11.60;99.90;;;;;;6136439;23;20016;-93
2022/01/02 05:23:25;;;;;;;26.17;11.65;;;11.60;99.90;;;;;;6135682;23;20017;-94
2022/01/02 05:25:51;;;;;;;24.00;12.87;;;11.60;99.90;;;;;;6136439;23;20749;-94
2022/01/02 05:28:17;;;;;;;23.98;11.40;;;11.60;99.90;;;;;;6135950;23;20032;-92
2022/01/02 05:30:43;;;;;;;26.70;12.07;;;11.60;99.90;;;;;;6135929;23;20013;-93
2022/01/02 05:33:10;;;;;;;22.97;11.17;;;11.70;99.90;;;;;;6135530;23;20017;-93
2022/01/02 05:35:36;;;;;;;26.02;11.43;;;11.60;99.90;;;;;;6135918;23;20522;-94
2022/01/02 05:38:02;;;;;;;28.33;12.10;;;11.60;99.90;;;;;;6136034;23;20021;-92
2022/01/02 05:40:32;;;;;;;27.13;11.93;;;11.60;99.90;;;;;;6135838;23;20462;-94
2022/01/02 05:43:02;;;;;;;23.23;9.55;;;11.70;99.90;;;;;;6135467;23;20021;-95
2022/01/02 05:45:28;;;;;;;24.42;10.95;;;11.60;99.90;;;;;;6135515;23;20060;-93
2022/01/02 05:47:53;;;;;;;24.88;9.93;;;11.60;99.90;;;;;;6135537;23;20021;-93
2022/01/02 05:50:19;;;;;;;20.38;9.55;;;11.60;99.90;;;;;;6135759;23;20020;-94
2022/01/02 05:52:45;;;;;;;23.38;9.90;;;11.60;99.90;;;;;;6135482;23;20021;-92
2022/01/02 05:55:11;;;;;;;27.47;9.70;;;11.60;99.90;;;;;;6135779;23;20056;-92
2022/01/02 05:57:36;;;;;;;22.58;9.40;;;11.60;99.90;;;;;;6135642;23;20256;-93
2022/01/02 06:00:07;;;;;;;26.77;8.83;;;11.60;99.90;;;;;;6135587;23;20017;-92
2022/01/02 06:02:32;;;;;;;19.05;8.25;;;11.60;99.90;;;;;;6135546;23;20052;-92
2022/01/02 06:04:59;;;;;;;21.53;8.80;;;11.60;99.90;;;;;;6135454;23;20017;-92
2022/01/02 06:07:25;;;;;;;;;;;11.60;99.90;;;;;;6135952;23;20021;-93
2022/01/02 06:09:50;;;;;;;23.13;8.00;;;11.60;99.90;;;;;;6136603;23;20291;-92
2022/01/02 06:12:16;;;;;;;21.50;7.70;;;11.60;99.90;;;;;;6138266;23;20009;-92
2022/01/02 06:14:42;;;;;;;22.73;8.13;;;11.60;99.90;;;;;;6155336;23;20017;-91
2022/01/02 06:17:07;;;;;;;20.83;7.70;;;11.60;99.90;;;;;;6143235;23;20092;-91
2022/01/02 06:19:33;;;;;;;23.90;8.10;;;11.60;99.90;;;;;;6145953;23;20013;-91
2022/01/02 06:22:00;;;;;;;20.03;8.07;;;11.60;99.90;;;;;;6151065;23;20076;-90
2022/01/02 06:24:26;;;;;;;18.17;7.43;;;11.70;99.90;;;;;;6137531;23;20045;-92
2022/01/02 06:26:52;;;;;;;17.27;6.90;;;11.70;99.90;;;;;;6135835;23;20024;-93
2022/01/02 06:29:18;;;;;;;22.07;7.63;;;11.70;99.90;;;;;;6159987;23;20071;-90
2022/01/02 06:31:44;;;;;;;19.90;7.43;;;11.70;99.90;;;;;;6135690;23;20017;-93
2022/01/02 06:34:09;;;;;;;17.60;6.55;;;11.70;99.90;;;;;;6160026;23;20108;-93
2022/01/02 06:36:35;;;;;;;20.33;7.23;;;11.70;99.90;;;;;;6135363;23;20018;-94
2022/01/02 06:39:01;;;;;;;17.13;7.03;;;11.70;99.90;;;;;;6136043;23;20024;-94
2022/01/02 06:41:27;;;;;;;18.60;6.90;;;11.70;99.90;;;;;;6135316;23;20055;-90
2022/01/02 06:43:52;;;;;;;18.00;7.03;;;11.70;99.90;;;;;;6135133;23;20017;-93
2022/01/02 06:46:19;;;;;;;18.97;6.77;;;11.70;99.90;;;;;;6135275;23;20024;-93
2022/01/02 06:48:45;;;;;;;;;;;11.70;99.90;;;;;;6136095;23;20326;-95
2022/01/02 06:51:14;;;;;;;16.88;6.88;;;11.70;99.90;;;;;;6135881;23;20231;-96
2022/01/02 06:53:39;;;;;;;19.98;6.88;;;11.70;99.90;;;;;;6159816;23;20024;-94
2022/01/02 06:56:05;;;;;;;15.60;6.33;;;11.80;99.90;;;;;;6135962;23;20028;-95
2022/01/02 06:58:31;;;;;;;20.20;6.80;;;11.70;99.90;;;;;;6135568;23;20021;-95
2022/01/02 07:00:57;;;;;;;17.23;6.45;;;11.80;99.90;;;;;;6159845;23;20021;-93
2022/01/02 07:03:24;;;;;;;14.82;6.40;;;11.80;99.90;;;;;;6135437;23;20020;-95
2022/01/02 07:05:50;;;;;;;18.52;6.70;;;11.80;99.90;;;;;;6134993;23;20017;-92
2022/01/02 07:08:16;;;;;;;16.80;5.90;;;11.80;99.90;;;;;;6135261;23;20021;-94
2022/01/02 07:10:42;;;;;;;17.53;5.93;;;11.80;99.90;;;;;;6135442;23;20120;-93
2022/01/02 07:13:08;;;;;;;14.10;5.88;;;11.80;99.90;;;;;;6135501;23;20021;-93
2022/01/02 07:15:33;;;;;;;16.80;5.50;;;11.80;99.90;;;;;;6135274;23;20537;-93
2022/01/02 07:18:00;;;;;;;13.60;4.77;;;11.90;99.90;;;;;;6135523;23;20280;-94
2022/01/02 07:20:26;;;;;;;;;;;11.80;99.90;;;;;;6136755;23;20013;-94
2022/01/02 07:22:52;;;;;;;15.23;4.75;;;11.90;99.90;;;;;;6135652;23;19916;-95
2022/01/02 07:25:17;;;;;;;13.37;4.33;;;11.90;99.90;;;;;;6135447;23;20052;-94
2022/01/02 07:27:43;;;;;;;14.77;4.07;;;11.90;99.90;;;;;;6136827;23;20017;-93
2022/01/02 07:30:09;;;;;;;15.03;4.30;;;11.90;99.90;;;;;;6137769;23;20272;-92
2022/01/02 07:32:37;;;;;;;9.80;3.78;;;11.90;99.90;;;;;;6137435;23;20324;-92
2022/01/02 07:35:06;;;;;;;16.92;4.50;;;12.00;99.90;;;;;;6136962;23;20045;-89
2022/01/02 07:37:33;;;;;;;11.15;3.70;;;12.00;99.90;;;;;;6138114;23;20052;-94
2022/01/02 07:39:59;;;;;;;10.70;3.30;;;12.00;99.90;;;;;;6137217;23;20013;-94
2022/01/02 07:42:24;;;;;;;9.70;4.00;;;12.00;99.90;;;;;;6138308;23;20078;-96
2022/01/02 07:44:50;;;;;;;11.25;3.60;;;12.00;99.90;;;;;;6137887;23;20243;-96
2022/01/02 07:47:16;;;;;;;10.67;3.57;;;12.10;99.90;;;;;;6137550;23;20028;-91
2022/01/02 07:49:42;;;;;;;16.70;4.43;;;12.10;99.90;;;;;;6136837;23;20255;-95
2022/01/02 07:52:07;;;;;;;11.80;4.13;;;12.10;99.90;;;;;;6137361;23;20103;-93
2022/01/02 07:54:33;;;;;;;12.00;3.83;;;12.10;99.90;;;;;;6136761;23;20017;-96
2022/01/02 07:56:59;;;;;;;13.27;3.77;;;12.10;99.90;;;;;;6137527;23;20017;-96
2022/01/02 07:59:24;;;;;;;12.43;3.55;;;12.10;99.90;;;;;;6139889;23;20276;-94
2022/01/02 08:01:50;;;;;;;11.67;3.97;;;12.10;99.90;;;;;;6137613;23;20021;-95
2022/01/02 08:04:16;;;;;;;11.27;4.00;;;12.10;99.90;;;;;;6137749;23;20443;-93
2022/01/02 08:06:42;;;;;;;12.47;3.87;;;12.10;99.90;;;;;;6162295;23;20021;-91
2022/01/02 08:09:07;;;;;;;10.60;3.60;;;12.10;99.90;;;;;;6138413;23;20017;-93
2022/01/02 08:11:33;;;;;;;12.10;4.07;;;12.10;99.90;;;;;;6138379;23;20013;-96
2022/01/02 08:14:00;;;;;;;16.53;4.33;;;12.10;99.90;;;;;;6138664;23;20024;-92
2022/01/02 08:16:26;;;;;;;10.93;3.83;;;12.10;99.90;;;;;;6137881;23;20021;-91
2022/01/02 08:18:52;;;;;;;12.20;4.17;;;12.00;99.90;;;;;;6163413;23;20083;-94
2022/01/02 08:21:18;;;;;;;13.10;4.57;;;12.00;99.90;;;;;;6138187;23;20252;-94
2022/01/02 08:23:44;;;;;;;12.77;4.10;;;12.00;99.90;;;;;;6139877;23;20028;-93
2022/01/02 08:26:09;;;;;;;15.57;4.50;;;12.00;99.90;;;;;;6138704;23;20017;-92
2022/01/02 08:28:36;;;;;;;14.90;4.83;;;12.00;99.90;;;;;;6138870;23;20406;-94
2022/01/02 08:31:02;;;;;;;13.35;4.50;;;12.00;99.90;;;;;;6137280;23;20245;-94
2022/01/02 08:33:28;;;;;;;14.73;5.38;;;11.90;99.90;;;;;;6163033;23;20028;-95
2022/01/02 08:35:53;;;;;;;11.07;4.90;;;11.90;99.90;;;;;;6137913;23;20017;-95
2022/01/02 08:38:19;;;;;;;13.03;4.70;;;11.90;99.90;;;;;;6140290;23;20021;-96
2022/01/02 08:40:45;;;;;;;9.30;4.43;;;11.90;99.90;;;;;;6140807;23;20283;-91
2022/01/02 08:43:11;;;;;;;17.42;5.07;;;11.90;99.90;;;;;;6139590;23;20104;-96
2022/01/02 08:45:38;;;;;;;14.02;4.95;;;11.90;99.90;;;;;;6164971;23;20518;-95
2022/01/02 08:48:04;;;;;;;10.82;4.63;;;11.90;99.90;;;;;;6144602;23;20017;-95
2022/01/02 08:50:31;;;;;;;9.32;4.70;;;11.90;99.90;;;;;;6142759;23;20100;-95
2022/01/02 08:52:57;;;;;;;;;;;11.90;99.90;;;;;;6145590;23;20482;-94
2022/01/02 08:55:22;;;;;;;13.52;4.57;;;11.90;99.90;;;;;;6138049;23;19954;-96
2022/01/02 08:57:48;;;;;;;13.87;4.87;;;11.90;99.90;;;;;;6138958;23;20024;-96
2022/01/02 09:00:15;;;;;;;10.60;4.90;;;11.90;99.90;;;;;;6139656;23;20252;-96
2022/01/02 09:02:41;;;;;;;11.85;5.18;;;11.80;99.90;;;;;;6160445;23;20005;-92
2022/01/02 09:05:08;;;;;;;8.53;4.90;;;11.90;99.90;;;;;;6156287;23;20076;-95
2022/01/02 09:07:37;;;;;;;9.57;4.45;;;11.80;99.90;;;;;;6152340;23;20009;-92
2022/01/02 09:10:04;;;;;;;10.55;4.50;;;11.80;99.90;;;;;;6160970;23;20024;-89
2022/01/02 09:12:29;;;;;;;10.75;4.75;;;11.80;99.90;;;;;;6170096;23;20451;-95
2022/01/02 09:14:55;;;;;;;7.77;4.13;;;11.80;99.90;;;;;;6138196;23;20017;-94
2022/01/02 09:17:21;;;;;;;8.00;4.20;;;11.80;99.90;;;;;;6135342;23;20017;-96
2022/01/02 09:19:48;;;;;;;8.97;3.77;;;11.80;99.90;;;;;;6136180;23;20096;-96
2022/01/02 09:22:15;;;;;;;9.25;3.92;;;11.80;99.90;;;;;;6136367;23;20017;-94
2022/01/02 09:24:41;;;;;;;7.78;3.75;;;11.70;99.90;;;;;;6161703;23;20028;-92
2022/01/02 09:27:07;;;;;;;6.67;3.70;;;11.70;99.90;;;;;;6138436;23;20013;-95
2022/01/02 09:29:33;;;;;;;8.55;4.55;;;11.70;99.90;;;;;;6136399;23;20271;-95
2022/01/02 09:31:59;;;;;;;7.53;3.97;;;11.70;99.90;;;;;;6139950;23;20075;-96
2022/01/02 09:34:24;;;;;;;8.30;4.88;;;11.70;99.90;;;;;;6137111;23;20416;-90
2022/01/02 09:36:50;;;;;;;10.10;5.43;;;11.70;99.90;;;;;;6139495;23;20021;-96
2022/01/02 09:39:16;;;;;;;11.40;5.87;;;11.70;99.90;;;;;;6148640;23;20017;-92
2022/01/02 09:41:43;;;;;;;12.70;5.90;;;11.60;99.90;;;;;;6161093;23;20017;-93
2022/01/02 09:44:26;;;;;;;12.35;6.20;;;11.60;99.90;;;;;;6160263;23;20013;-90
2022/01/02 09:47:09;;;;;;;10.45;5.57;;;11.60;99.90;;;;;;6180410;23;20028;-92
2022/01/02 09:49:38;;;;;;;10.52;5.40;;;11.60;99.90;;;;;;6181959;23;20013;-93
2022/01/02 09:52:16;;;;;;;9.95;5.68;;;11.60;99.90;;;;;;6176431;23;20021;-91
2022/01/02 09:54:42;;;;;;;10.05;5.85;;;11.60;99.90;;;;;;6177367;23;20382;-90
2022/01/02 09:57:08;;;;;;;10.65;5.63;;;11.60;99.90;;;;;;6142751;23;20017;-89
2022/01/02 09:59:34;;;;;;;10.15;6.25;;;11.60;99.90;;;;;;6141389;23;20067;-88
2022/01/02 10:02:01;;;;;;;10.23;6.63;;;11.60;99.90;;;;;;6141374;23;20020;-88
2022/01/02 10:04:39;;;;;;;12.15;6.93;;;11.60;99.90;;;;;;6142275;23;20248;-88
2022/01/02 10:07:25;;;;;;;12.98;7.05;;;11.60;99.90;;;;;;6142106;23;20027;-88
2022/01/02 10:09:50;;;;;;;11.30;7.10;;;11.60;99.90;;;;;;6139677;23;20020;-89
2022/01/02 10:12:25;;;;;;;12.57;7.70;;;11.60;99.90;;;;;;6142599;23;20193;-89
2022/01/02 10:15:07;;;;;;;14.95;7.60;;;11.50;99.90;;;;;;6142708;23;20017;-89
2022/01/02 10:18:19;;;;;;;15.40;7.53;;;11.60;99.90;;;;;;6167763;23;20017;-88
2022/01/02 10:20:46;;;;;;;14.52;8.30;;;11.50;99.90;;;;;;6140206;23;20019;-89
2022/01/02 10:23:23;;;;;;;15.02;9.07;;;11.50;99.90;;;;;;6140639;23;20025;-88
2022/01/02 10:25:52;;;;;;;13.95;7.68;;;11.50;99.90;;;;;;6141981;23;20017;-91
2022/01/02 10:28:26;;;;;;;16.40;8.48;;;11.50;99.90;;;;;;6142537;23;20021;-89
2022/01/02 10:31:09;;;;;;;15.25;7.80;;;11.50;99.90;;;;;;6142574;23;20017;-89
2022/01/02 10:33:58;;;;;;;12.05;7.55;;;11.50;99.90;;;;;;6165505;23;20024;-90
2022/01/02 10:36:27;;;;;;;15.68;7.90;;;11.50;99.90;;;;;;6167652;23;20059;-90
2022/01/02 10:39:05;;;;;;;17.10;7.90;;;11.50;99.90;;;;;;6164948;23;20021;-92
2022/01/02 10:41:38;;;;;;;13.57;7.43;;;11.50;99.90;;;;;;6139847;23;20017;-88
2022/01/02 10:44:25;;;;;;;15.50;7.82;;;11.60;99.90;;;;;;6139688;23;20451;-90
2022/01/02 10:47:21;;;;;;;17.20;8.07;;;11.60;99.90;;;;;;6140060;23;20021;-89
2022/01/02 10:49:53;;;;;;;17.30;8.32;;;11.60;99.90;;;;;;6138973;23;20454;-92
2022/01/02 10:52:24;;;;;;;17.17;8.45;;;11.60;99.90;;;;;;6138343;23;20048;-90
2022/01/02 10:54:50;;;;;;;19.35;8.45;;;11.60;99.90;;;;;;6138607;23;20013;-92
2022/01/02 10:57:17;;;;;;;17.10;8.35;;;11.60;99.90;;;;;;6138641;23;20474;-93
2022/01/02 10:59:45;;;;;;;18.00;8.55;;;11.70;99.90;;;;;;6137761;23;20017;-91
2022/01/02 11:02:15;;;;;;;17.35;7.25;;;11.70;99.90;;;;;;6138051;23;20024;-91
2022/01/02 11:04:52;;;;;;;16.77;7.32;;;11.70;99.90;;;;;;6139077;23;20013;-90
2022/01/02 11:07:26;;;;;;;16.80;6.85;;;11.70;99.90;;;;;;6105900;23;20030;-90
2022/01/02 11:15:02;;;;;;;17.08;6.07;;;11.70;99.90;;;;;;6106718;23;20025;-92
2022/01/02 11:28:48;;;;;;;12.63;4.38;;;11.80;99.90;;;;;;6129320;23;20092;-92
2022/01/02 11:31:48;;;;;;;15.15;4.60;;;11.80;99.90;;;;;;6080380;23;20030;-94
2022/01/02 12:53:24;;;;;;;18.13;2.60;;;11.70;99.90;;;;;;6136417;23;20448;-93
2022/01/02 12:58:52;;;;;;;12.05;2.55;;;11.70;99.90;;;;;;6205376;23;20043;-92
2022/01/02 13:01:33;;;;;;;15.20;2.78;;;11.70;99.90;;;;;;6165938;23;20028;-93
2022/01/02 13:04:17;;;;;;;13.50;2.20;;;11.70;99.90;;;;;;6165765;23;20012;-93
2022/01/02 13:06:47;;;;;;;16.30;2.72;;;11.60;99.90;;;;;;6162718;23;20020;-92
2022/01/02 13:09:32;;;;;;;10.75;2.05;;;11.60;99.90;;;;;;6166284;23;20341;-94
2022/01/02 13:12:02;;;;;;;13.88;2.50;;;11.60;99.90;;;;;;6166545;23;20019;-94
2022/01/02 13:14:35;;;;;;;11.63;2.17;;;11.50;99.90;;;;;;6166068;23;20017;-95
2022/01/02 13:17:03;;;;;;;16.27;2.70;;;11.50;99.90;;;;;;6191044;23;20020;-96
2022/01/02 13:19:29;;;;;;;15.43;2.78;;;11.50;99.90;;;;;;6166712;23;20345;-96
2022/01/02 13:24:34;;;;;;;10.30;2.50;;;11.40;99.90;;;;;;6192056;23;20047;-91
2022/01/02 13:27:05;;;;;;;11.75;2.25;;;11.40;99.90;;;;;;6142279;23;20025;-90
2022/01/02 13:29:31;;;;;;;12.88;2.22;;;11.40;99.90;;;;;;6142742;23;20151;-90
2022/01/02 13:32:12;;;;;;;12.07;1.95;;;11.30;99.90;;;;;;6141396;23;20032;-91
2022/01/02 13:34:38;;;;;;;11.77;2.42;;;11.30;99.90;;;;;;6137267;23;20072;-93
2022/01/02 13:37:04;;;;;;;12.60;2.17;;;11.20;99.90;;;;;;6138793;23;20017;-90
2022/01/02 13:39:57;;;;;;;17.77;2.63;;;11.20;99.90;;;;;;6137601;23;20721;-88
2022/01/02 13:42:36;;;;;;;10.20;1.75;;;11.20;99.90;;;;;;6130296;23;20092;-91
2022/01/02 13:45:15;;;;;;;19.60;2.53;;;11.10;99.90;;;;;;6136777;23;20047;-93
2022/01/02 13:47:42;;;;;;;12.60;3.03;;;11.10;99.90;;;;;;6136222;23;20017;-91
2022/01/02 13:50:10;;;;;;;16.88;2.53;;;11.10;99.90;;;;;;6136529;23;20013;-92
2022/01/02 13:52:53;;;;;;;12.48;2.22;;;11.00;99.90;;;;;;6136703;23;20059;-93
2022/01/02 13:55:19;;;;;;;15.25;2.45;;;11.00;99.90;;;;;;6136372;23;20017;-91
2022/01/02 13:57:45;;;;;;;13.23;1.90;;;11.00;99.90;;;;;;6135578;23;20020;-91
2022/01/02 14:00:21;;;;;;;15.77;4.90;;;11.00;99.90;;;;;;6137219;23;20020;-93
2022/01/02 14:02:52;;;;;;;22.77;8.80;;;11.00;99.90;;;;;;6136552;23;20116;-91
2022/01/02 14:05:43;;;;;;;16.83;4.63;;;11.00;99.90;;;;;;6161062;23;20279;-93
2022/01/02 14:08:19;;;;;;;14.90;3.17;;;11.00;99.90;;;;;;6119255;23;20447;-93
2022/01/02 14:10:46;;;;;;;15.27;3.08;;;10.90;99.90;;;;;;6160794;23;20100;-93
2022/01/02 14:13:15;;;;;;;11.85;2.13;;;11.00;99.90;;;;;;6136236;23;20017;-93
2022/01/02 14:15:43;;;;;;;13.13;2.85;;;11.00;99.90;;;;;;6136599;23;20021;-92
2022/01/02 14:18:09;;;;;;;15.95;2.22;;;11.00;99.90;;;;;;6161071;23;20075;-92
2022/01/02 14:20:37;;;;;;;12.63;2.72;;;10.90;99.90;;;;;;6136627;23;20021;-90
2022/01/02 14:23:05;;;;;;;16.15;2.20;;;10.90;99.90;;;;;;6136013;23;20021;-91
2022/01/02 14:25:34;;;;;;;14.25;2.25;;;10.90;99.90;;;;;;6160538;23;20068;-92
2022/01/02 14:28:02;;;;;;;11.38;1.88;;;10.90;99.90;;;;;;6136468;23;20025;-92
2022/01/02 14:30:27;;;;;;;10.90;1.70;;;10.90;99.90;;;;;;6160786;23;20483;-93
2022/01/02 14:32:53;;;;;;;13.10;1.67;;;10.90;99.90;;;;;;6136542;23;20021;-93
2022/01/02 14:35:20;;;;;;;12.68;2.33;;;10.90;99.90;;;;;;6136105;23;20081;-93
2022/01/02 14:37:47;;;;;;;16.77;4.30;;;10.80;99.90;;;;;;6135970;23;20071;-91
2022/01/02 14:40:31;;;;;;;8.95;2.10;;;10.80;99.90;;;;;;6137411;23;20017;-86
2022/01/02 14:43:00;;;;;;;19.20;2.00;;;10.80;99.90;;;;;;6134647;23;20053;-91
2022/01/02 14:45:26;;;;;;;9.50;2.05;;;10.80;99.90;;;;;;6185964;23;20024;-85
2022/01/02 14:47:52;;;;;;;13.60;2.10;;;10.80;99.90;;;;;;6161026;23;20079;-85
2022/01/02 14:50:18;;;;;;;11.15;2.97;;;10.80;99.90;;;;;;6187739;23;20021;-86
2022/01/02 14:52:44;;;;;;;9.27;1.85;;;10.80;99.90;;;;;;6186920;23;20021;-89
2022/01/02 14:55:38;;;;;;;11.05;2.00;;;10.70;99.90;;;;;;6186895;23;20060;-86
2022/01/02 14:58:56;;;;;;;14.68;2.40;;;10.70;99.90;;;;;;6135394;23;20013;-86